Flight Track Log - Related Links

Times and Time Zones

All times are in EDT time to prevent confusion due to time zone crossing. See the SKW5162 flight status page for this flight to view local times or setup timezone preferences in your user account.

Time Position Orientation Groundspeed Altitude Reporting Facility
EDT Latitude Longitude Course Direction KTS MPH feet Rate Location/Type
Mon 04:04:51 PM 28.4333 -81.3167 270° West 153 176 400  Level Orlando TRACON
Mon 04:06:15 PM 28.3500 -81.3500 199° South 225 259 3,100 1,958 Climbing Orlando TRACON
Mon 04:07:15 PM 28.3167 -81.4167 240° Southwest 276 318 5,100 2,400 Climbing Orlando TRACON
Mon 04:08:00 PM 28.4167 -81.8211 270° West  Level FlightAware Approximate
Mon 04:08:15 PM 28.3500 -81.5000 294° West 274 315 7,900  Level Orlando TRACON
Mon 04:09:00 PM 28.4167 -81.9513 270° West  Level FlightAware Approximate
Mon 04:09:15 PM 28.3667 -81.5833 283° West 280 322 10,000  Level Orlando TRACON
Mon 04:10:00 PM 28.4167 -82.0816 270° West  Level FlightAware Approximate
Mon 04:10:27 PM 28.3833 -81.6833 281° West 314 361 12,400  Level Orlando TRACON
Mon 04:12:44 PM 28.4342 -81.9200 284° West 326 375 17,600 2,071 Climbing Jacksonville Center
Mon 04:13:44 PM 28.4622 -82.0214 287° West 331 381 19,200 1,450 Climbing Jacksonville Center
Mon 04:14:44 PM 28.4878 -82.1131 288° West 336 387 20,500 1,400 Climbing Jacksonville Center
Mon 04:15:44 PM 28.5281 -82.2192 293° West 349 402 22,000 1,600 Climbing Jacksonville Center
Mon 04:16:44 PM 28.5661 -82.3228 293° West 349 402 23,700 1,300 Climbing Jacksonville Center
Mon 04:17:44 PM 28.6144 -82.4267 298° West 355 409 24,600 1,100 Climbing Jacksonville Center
Mon 04:18:44 PM 28.6442 -82.5425 286° West 367 422 25,900 1,250 Climbing Jacksonville Center
Mon 04:19:44 PM 28.6547 -82.6656 276° West 387 445 27,100 1,250 Climbing Jacksonville Center
Mon 04:20:44 PM 28.6653 -82.7956 275° West 406 467 28,400 1,200 Climbing Jacksonville Center
Mon 04:21:44 PM 28.6778 -82.9233 276° West 411 473 29,500 1,100 Climbing Jacksonville Center
Mon 04:22:44 PM 28.6925 -83.0631 277° West 411 473 30,600 1,100 Climbing Jacksonville Center
Mon 04:23:44 PM 28.7047 -83.1956 276° West 411 473 31,700 1,100 Climbing Jacksonville Center
Mon 04:24:44 PM 28.7397 -83.3189 288° West 411 473 32,800 1,250 Climbing Jacksonville Center
Mon 04:25:44 PM 28.8103 -83.4281 306° West 416 479 34,200 1,300 Climbing Jacksonville Center
Mon 04:26:44 PM 28.8789 -83.5306 307° West 416 479 35,400 900 Climbing Jacksonville Center
Mon 04:27:44 PM 28.9431 -83.6328 306° West 409 471 36,000 900 Climbing Jacksonville Center
Mon 04:28:44 PM 29.0111 -83.7356 307° West 409 471 37,200 900 Climbing Jacksonville Center
Mon 04:29:44 PM 29.0753 -83.8358 306° West 404 465 37,800 400 Climbing Jacksonville Center
Mon 04:30:44 PM 29.1411 -83.9386 306° West 404 465 38,000 100 Climbing Jacksonville Center
Mon 04:31:44 PM 29.2050 -84.0417 305° West 404 465 38,000  Level Jacksonville Center
Mon 04:32:44 PM 29.2728 -84.1494 306° West 404 465 38,000  Level Jacksonville Center
Mon 04:33:44 PM 29.3406 -84.2575 306° West 409 471 38,000  Level Jacksonville Center
Mon 04:34:44 PM 29.4103 -84.3658 306° West 414 476 38,000  Level Jacksonville Center
Mon 04:35:44 PM 29.4781 -84.4719 306° West 414 476 38,000  Level Jacksonville Center
Mon 04:36:44 PM 29.5456 -84.5781 306° West 414 476 38,000  Level Jacksonville Center
Mon 04:37:44 PM 29.6131 -84.6889 305° West 414 476 38,000  Level Jacksonville Center
Mon 04:38:44 PM 29.6803 -84.7931 307° West 414 476 38,000  Level Jacksonville Center
Mon 04:39:44 PM 29.7475 -84.9019 305° West 414 476 38,000  Level Jacksonville Center
Mon 04:40:44 PM 29.8147 -85.0111 305° West 414 476 38,000  Level Jacksonville Center
Mon 04:41:44 PM 29.8817 -85.1181 306° West 414 476 38,000  Level Jacksonville Center
Mon 04:42:44 PM 29.9486 -85.2250 306° West 414 476 38,000  Level Jacksonville Center
Mon 04:43:44 PM 30.0136 -85.3319 305° West 414 476 38,000  Level Jacksonville Center
Mon 04:44:44 PM 30.0783 -85.4392 305° West 414 476 38,000  Level Jacksonville Center
Mon 04:45:44 PM 30.1425 -85.5611 301° West 421 484 38,000  Level Jacksonville Center
Mon 04:46:44 PM 30.2069 -85.6686 305° West 426 490 38,000  Level Jacksonville Center
Mon 04:47:44 PM 30.2486 -85.7781 294° West 420 483 38,000  Level Jacksonville Center
Mon 04:48:44 PM 30.2894 -85.9044 291° West 420 483 38,000  Level Jacksonville Center
Mon 04:49:44 PM 30.3281 -86.0306 290° West 420 483 38,000  Level Jacksonville Center
Mon 04:50:44 PM 30.3667 -86.1572 289° West 420 483 38,000  Level Jacksonville Center
Mon 04:51:44 PM 30.4094 -86.2814 292° West 420 483 38,000  Level Jacksonville Center
Mon 04:52:44 PM 30.4456 -86.4103 288° West 420 483 38,000  Level Jacksonville Center
Mon 04:53:44 PM 30.4817 -86.5394 288° West 425 489 38,000  Level Jacksonville Center
Mon 04:54:44 PM 30.4839 -86.6769 271° West 425 489 38,000  Level Jacksonville Center
Mon 04:55:44 PM 30.4794 -86.8164 268° West 425 489 38,000  Level Jacksonville Center
Mon 04:56:44 PM 30.4775 -86.9514 269° West 425 489 38,000  Level Jacksonville Center
Mon 04:58:35 PM 30.4725 -87.2000 269° West 424 488 38,000  Level Houston Center
Mon 04:59:37 PM 30.4700 -87.3361 269° West 422 486 38,000  Level Houston Center
Mon 05:00:39 PM 30.4656 -87.4983 268° West 420 483 38,000  Level Houston Center
Mon 05:01:41 PM 30.4417 -87.6336 258° West 422 486 38,000  Level Houston Center
Mon 05:02:43 PM 30.4167 -87.7672 258° West 422 486 38,000  Level Houston Center
Mon 05:03:45 PM 30.3911 -87.9019 258° West 424 488 38,000  Level Houston Center
Mon 05:04:47 PM 30.3667 -88.0350 258° West 421 484 38,000  Level Houston Center
Mon 05:05:50 PM 30.3403 -88.1689 257° West 424 488 38,000  Level Houston Center
Mon 05:06:52 PM 30.3150 -88.3022 258° West 424 488 38,000  Level Houston Center
Mon 05:07:54 PM 30.2847 -88.4628 258° West 423 487 38,000  Level Houston Center
Mon 05:08:56 PM 30.2583 -88.5958 257° West 423 487 38,000  Level Houston Center
Mon 05:09:58 PM 30.2322 -88.7283 257° West 422 486 38,000  Level Houston Center
Mon 05:11:00 PM 30.2069 -88.8603 258° West 421 484 38,000  Level Houston Center
Mon 05:12:02 PM 30.1825 -88.9922 258° West 424 488 38,000  Level Houston Center
Mon 05:13:04 PM 30.1564 -89.1242 257° West 422 486 38,000  Level Houston Center
Mon 05:14:06 PM 30.1256 -89.2822 257° West 419 482 38,000  Level Houston Center
Mon 05:15:08 PM 30.0992 -89.4147 257° West 420 483 38,000  Level Houston Center
Mon 05:16:11 PM 30.0719 -89.5492 257° West 424 488 38,000  Level Houston Center
Mon 05:17:13 PM 30.0442 -89.6831 257° West 425 489 38,000  Level Houston Center
Mon 05:18:15 PM 30.0169 -89.8178 257° West 426 490 38,000  Level Houston Center
Mon 05:19:17 PM 29.9908 -89.9503 257° West 423 487 38,000  Level Houston Center
Mon 05:20:19 PM 29.9639 -90.0839 257° West 424 488 38,000  Level Houston Center
Mon 05:21:21 PM 29.9308 -90.2428 257° West 425 489 38,000  Level Houston Center
Mon 05:22:23 PM 29.9036 -90.3753 257° West 424 488 38,000  Level Houston Center
Mon 05:23:25 PM 29.8769 -90.5075 257° West 424 488 38,000  Level Houston Center
Mon 05:24:27 PM 29.8489 -90.6392 256° West 424 488 38,000  Level Houston Center
Mon 05:25:30 PM 29.8197 -90.7703 256° West 423 487 38,000  Level Houston Center
Mon 05:26:32 PM 29.7942 -90.9017 257° West 423 487 38,000  Level Houston Center
Mon 05:27:34 PM 29.7603 -91.0578 256° West 420 483 38,000  Level Houston Center
Mon 05:28:36 PM 29.7322 -91.1897 256° West 423 487 38,000  Level Houston Center
Mon 05:29:38 PM 29.7044 -91.3192 256° West 419 482 38,000  Level Houston Center
Mon 05:30:40 PM 29.6769 -91.4494 256° West 420 483 38,000  Level Houston Center
Mon 05:31:42 PM 29.6494 -91.5808 256° West 422 486 38,000  Level Houston Center
Mon 05:32:44 PM 29.6206 -91.7125 256° West 424 488 38,000  Level Houston Center
Mon 05:33:46 PM 29.5853 -91.8694 256° West 419 482 38,000  Level Houston Center
Mon 05:34:49 PM 29.5575 -92.0014 256° West 424 488 38,000  Level Houston Center
Mon 05:35:51 PM 29.5289 -92.1311 256° West 419 482 38,000  Level Houston Center
Mon 05:36:53 PM 29.4994 -92.2614 255° West 421 484 38,000  Level Houston Center
Mon 05:37:55 PM 29.4703 -92.3919 256° West 422 486 38,000  Level Houston Center
Mon 05:38:57 PM 29.4589 -92.5256 264° West 422 486 38,000  Level Houston Center
Mon 05:39:59 PM 29.4647 -92.6586 273° West 418 481 38,000  Level Houston Center
Mon 05:41:01 PM 29.4722 -92.8181 273° West 419 482 38,000  Level Houston Center
Mon 05:42:03 PM 29.4778 -92.9514 273° West 418 481 38,000 -48 Level Houston Center
Mon 05:43:05 PM 29.4842 -93.0856 273° West 420 483 37,900 -1,296 Descending Houston Center
Mon 05:44:08 PM 29.4911 -93.2247 273° West 434 499 35,300 -2,496 Descending Houston Center
Mon 05:45:10 PM 29.4967 -93.3625 273° West 433 498 32,700 -2,468 Descending Houston Center
Mon 05:46:12 PM 29.5011 -93.4897 272° West 407 468 30,200 -2,736 Descending Houston Center
Mon 05:47:15 PM 29.5078 -93.6467 273° West 408 470 27,000 -2,903 Descending Houston Center
Mon 05:48:16 PM 29.5128 -93.7808 272° West 414 476 24,200 -2,683 Descending Houston Center
Mon 05:49:18 PM 29.5189 -93.9153 273° West 419 482 21,500 -2,565 Descending Houston Center
Mon 05:50:20 PM 29.5242 -94.0425 273° West 414 476 18,900 -2,703 Descending Houston Center
Mon 05:51:09 PM 29.5250 -94.1469 271° West 366 421 16,500 -2,836 Descending Houston Center
Mon 05:52:10 PM 29.5306 -94.2664 273° West 358 412 13,700 -1,721 Descending Houston Center
Mon 05:53:11 PM 29.5456 -94.3750 279° West 334 384 13,000 -468 Descending Houston Center
Mon 05:53:27 PM 29.5564 -94.3936 304° West 350 403 13,100 -197 Climbing Houston Center
Mon 05:54:12 PM 29.5867 -94.4706 294° West 338 389 12,800 -484 Descending Houston Center
Mon 05:54:29 PM 29.5961 -94.4894 300° West 336 387 12,600 -1,377 Descending Houston Center
Mon 05:55:13 PM 29.6247 -94.5594 295° West 302 348 11,400 -1,355 Descending Houston Center
Mon 05:55:31 PM 29.6336 -94.5781 299° West 319 367 11,200 -1,279 Descending Houston Center
Mon 05:56:14 PM 29.6603 -94.6439 295° West 295 339 10,100 -1,258 Descending Houston Center
Mon 05:56:33 PM 29.6683 -94.6606 299° West 296 341 9,900 -1,091 Descending Houston Center
Mon 05:57:09 PM 29.6931 -94.7217 295° West 291 335 9,100 -1,161 Descending Houston Center
Mon 05:57:35 PM 29.7039 -94.7436 300° West 293 337 8,700 -1,235 Descending Houston Center
Mon 05:58:17 PM 29.7339 -94.8175 295° West 290 334 7,700 -1,452 Descending Houston Center
Mon 05:58:37 PM 29.7461 -94.8428 299° West 291 335 7,200 -1,200 Descending Houston Center
Mon 05:59:17 PM 29.7692 -94.8997 295° West 289 333 6,500 -1,065 Descending Houston Center
Mon 05:59:39 PM 29.7814 -94.9247 299° West 289 333 6,100 -492 Descending Houston Center
Mon 06:00:18 PM 29.8042 -94.9819 295° West 285 328 6,000 -59 Descending Houston Center
Mon 06:01:20 PM 29.8397 -95.0692 295° West 284 327 6,000  Level Houston Center
Mon 06:01:43 PM 29.8494 -95.0878 301° West 285 328 6,000  Level Houston Center
Mon 06:02:15 PM 29.8717 -95.1425 295° West 285 328 6,000  Level Houston Center
Mon 06:02:45 PM 29.8844 -95.1692 299° West 286 329 6,000  Level Houston Center
Mon 06:03:16 PM 29.8986 -95.2283 285° West 276 318 6,000  Level Houston Center
Mon 06:03:47 PM 29.9008 -95.2728 273° West 284 327 6,000  Level Houston Center
Mon 06:04:17 PM 29.8986 -95.3197 267° West 275 316 6,000  Level Houston Center
Mon 06:04:49 PM 29.9006 -95.3586 273° West 272 313 6,000  Level Houston Center
Mon 06:05:18 PM 29.8997 -95.3992 269° West 217 250 6,000  Level Houston Center
Mon 06:05:51 PM 29.9008 -95.4300 272° West 221 254 6,000 -393 Level Houston Center
Mon 06:06:19 PM 29.8994 -95.4667 268° West 192 221 5,600 -871 Descending Houston Center
Mon 06:06:53 PM 29.9011 -95.4942 274° West 204 235 5,100 -1,475 Descending Houston Center
Mon 06:07:20 PM 29.9011 -95.5317 270° West 198 228 4,100 -1,839 Descending Houston Center
Mon 06:07:55 PM 29.9025 -95.5586 273° West 203 234 3,200 -1,082 Descending Houston Center
Mon 06:08:21 PM 29.9339 -95.5686 345° North 198 228 3,000 -194 Descending Houston Center
Mon 06:08:57 PM 29.9658 -95.5581 16° North 198 228 3,000  Level Houston Center
Mon 06:09:22 PM 29.9775 -95.5394 54° Northeast 179 206 3,000 -290 Level Houston Center
Mon 06:09:59 PM 29.9933 -95.5103 58° Northeast 184 212 2,700 -486 Descending Houston Center

Login

Don't have an account? Register now (free) for customized features, flight alerts, and more!